createdAt,value
2023-04-21T00:01:25.592Z,9.00
2023-04-21T00:03:52.613Z,9.10
2023-04-21T00:06:23.049Z,9.10
2023-04-21T00:08:50.948Z,9.10
2023-04-21T00:11:18.035Z,9.10
2023-04-21T00:13:45.570Z,9.10
2023-04-21T00:16:12.700Z,9.10
2023-04-21T00:18:39.628Z,9.20
2023-04-21T00:21:06.532Z,9.20
2023-04-21T00:23:33.450Z,9.20
2023-04-21T00:26:02.940Z,9.20
2023-04-21T00:28:30.365Z,9.20
2023-04-21T00:30:57.592Z,9.20
2023-04-21T00:33:24.773Z,9.20
2023-04-21T00:35:51.662Z,9.20
2023-04-21T00:38:18.450Z,9.20
2023-04-21T00:40:45.323Z,9.20
2023-04-21T00:43:12.342Z,9.20
2023-04-21T00:45:39.308Z,9.20
2023-04-21T00:48:06.689Z,9.20
2023-04-21T00:50:34.471Z,9.20
2023-04-21T00:53:01.500Z,9.10
2023-04-21T00:55:29.151Z,9.10
2023-04-21T00:57:56.717Z,9.10
2023-04-21T01:00:24.096Z,9.10
2023-04-21T01:02:51.272Z,9.10
2023-04-21T01:05:18.392Z,9.20
2023-04-21T01:07:46.080Z,9.20
2023-04-21T01:10:12.956Z,9.20
2023-04-21T01:12:47.530Z,9.20
2023-04-21T01:15:18.770Z,9.20
2023-04-21T01:17:45.784Z,9.20
2023-04-21T01:20:15.420Z,9.30
2023-04-21T01:22:43.009Z,9.20
2023-04-21T01:25:10.258Z,9.30
2023-04-21T01:27:38.235Z,9.30
2023-04-21T01:30:07.700Z,9.30
2023-04-21T01:32:34.924Z,9.30
2023-04-21T01:35:02.233Z,9.30
2023-04-21T01:37:31.491Z,9.20
2023-04-21T01:40:02.038Z,9.30
2023-04-21T01:42:30.653Z,9.20
2023-04-21T01:44:58.399Z,9.20
2023-04-21T01:47:25.825Z,9.20
2023-04-21T01:49:53.621Z,9.30
2023-04-21T01:52:21.117Z,9.30
2023-04-21T01:54:48.044Z,9.30
2023-04-21T01:57:15.652Z,9.30
2023-04-21T01:59:42.593Z,9.30
2023-04-21T02:02:10.160Z,9.30
2023-04-21T02:04:37.391Z,9.30
2023-04-21T02:07:04.352Z,9.40
2023-04-21T02:09:32.067Z,9.40
2023-04-21T02:11:59.112Z,9.40
2023-04-21T02:14:26.300Z,9.40
2023-04-21T02:16:53.441Z,9.40
2023-04-21T02:19:20.839Z,9.40
2023-04-21T02:21:48.001Z,9.40
2023-04-21T02:24:14.920Z,9.40
2023-04-21T02:26:41.819Z,9.40
2023-04-21T02:29:08.876Z,9.30
2023-04-21T02:31:43.304Z,9.30
2023-04-21T02:34:21.547Z,9.30
2023-04-21T02:36:48.470Z,9.30
2023-04-21T02:39:15.434Z,9.30
2023-04-21T02:41:42.575Z,9.30
2023-04-21T02:44:09.468Z,9.30
2023-04-21T02:46:36.384Z,9.20
2023-04-21T02:49:03.365Z,9.20
2023-04-21T02:51:30.274Z,9.20
2023-04-21T02:53:57.123Z,9.20
2023-04-21T02:56:24.050Z,9.10
2023-04-21T02:58:50.898Z,9.20
2023-04-21T03:01:18.957Z,9.10
2023-04-21T03:03:46.372Z,9.10
2023-04-21T03:06:13.303Z,9.10
2023-04-21T03:08:40.317Z,9.10
2023-04-21T03:11:07.265Z,9.10
2023-04-21T03:13:34.177Z,9.10
2023-04-21T03:16:01.200Z,9.10
2023-04-21T03:18:28.312Z,9.10
2023-04-21T03:21:00.424Z,9.10
2023-04-21T03:23:27.247Z,9.10
2023-04-21T03:25:54.323Z,9.10
2023-04-21T03:28:21.271Z,9.10
2023-04-21T03:30:48.741Z,9.20
2023-04-21T03:33:16.447Z,9.20
2023-04-21T03:35:50.030Z,9.30
2023-04-21T03:38:17.243Z,9.30
2023-04-21T03:40:44.481Z,9.40
2023-04-21T03:43:11.372Z,9.50
2023-04-21T03:45:38.500Z,9.50
2023-04-21T03:48:06.016Z,9.60
2023-04-21T03:50:32.952Z,9.60
2023-04-21T03:53:03.267Z,9.70
2023-04-21T03:55:32.651Z,9.80
2023-04-21T03:58:00.157Z,9.80
2023-04-21T04:00:27.633Z,9.90
2023-04-21T04:02:54.770Z,9.90
2023-04-21T04:05:21.943Z,9.90
2023-04-21T04:07:48.881Z,10.00
2023-04-21T04:10:15.822Z,10.00
2023-04-21T04:12:42.829Z,10.00
2023-04-21T04:15:09.933Z,10.00
2023-04-21T04:17:36.840Z,10.00
2023-04-21T04:20:04.883Z,10.10
2023-04-21T04:22:31.862Z,10.10
2023-04-21T04:24:59.900Z,10.10
2023-04-21T04:27:27.949Z,10.10
2023-04-21T04:29:54.927Z,10.10
2023-04-21T04:32:21.981Z,10.10
2023-04-21T04:34:49.022Z,10.10
2023-04-21T04:37:16.271Z,10.10
2023-04-21T04:39:43.167Z,10.10
2023-04-21T04:42:10.201Z,10.20
2023-04-21T04:44:37.146Z,10.20
2023-04-21T04:47:04.635Z,10.20
2023-04-21T04:49:32.077Z,10.20
2023-04-21T04:51:59.881Z,10.30
2023-04-21T04:54:29.140Z,10.40
2023-04-21T04:56:57.972Z,10.50
2023-04-21T04:59:25.256Z,10.50
2023-04-21T05:01:52.730Z,10.40
2023-04-21T05:04:20.513Z,10.40
2023-04-21T05:06:47.819Z,10.30
2023-04-21T05:09:14.748Z,10.40
2023-04-21T05:11:41.607Z,10.30
2023-04-21T05:14:09.575Z,10.40
2023-04-21T05:16:36.543Z,10.30
2023-04-21T05:19:03.731Z,10.30
2023-04-21T05:21:31.331Z,10.30
2023-04-21T05:23:59.257Z,10.30
2023-04-21T05:26:27.780Z,10.30
2023-04-21T05:28:58.906Z,10.30
2023-04-21T05:31:26.611Z,10.20
2023-04-21T05:33:54.038Z,10.30
2023-04-21T05:36:20.967Z,10.30
2023-04-21T05:38:47.889Z,10.30
2023-04-21T05:41:14.962Z,10.30
2023-04-21T05:43:41.971Z,10.40
2023-04-21T05:46:11.187Z,10.40
2023-04-21T05:48:38.263Z,10.40
2023-04-21T05:51:17.854Z,10.40
2023-04-21T05:53:46.072Z,10.50
2023-04-21T05:56:13.530Z,10.50
2023-04-21T05:58:41.833Z,10.50
2023-04-21T06:01:09.025Z,10.50
2023-04-21T06:03:36.617Z,10.50
2023-04-21T06:06:05.985Z,10.50
2023-04-21T06:08:33.562Z,10.60
2023-04-21T06:11:01.040Z,10.60
2023-04-21T06:13:28.035Z,10.60
2023-04-21T06:15:55.485Z,10.60
2023-04-21T06:18:24.074Z,10.60
2023-04-21T06:20:54.929Z,10.70
2023-04-21T06:23:22.308Z,10.70
2023-04-21T06:26:00.845Z,10.70
2023-04-21T06:28:27.782Z,10.70
2023-04-21T06:30:55.296Z,10.70
2023-04-21T06:33:22.473Z,10.70
2023-04-21T06:35:49.992Z,10.70
2023-04-21T06:38:17.027Z,10.80
2023-04-21T06:40:44.395Z,10.80
2023-04-21T06:43:11.384Z,10.90
2023-04-21T06:45:38.405Z,10.80
2023-04-21T06:48:06.020Z,10.90
2023-04-21T06:50:33.122Z,10.90
2023-04-21T06:53:00.042Z,10.90
2023-04-21T06:55:27.008Z,10.90
2023-04-21T06:57:53.941Z,11.00
2023-04-21T07:00:21.251Z,11.10
2023-04-21T07:02:48.383Z,11.20
2023-04-21T07:05:15.431Z,11.20
2023-04-21T07:07:42.571Z,11.30
2023-04-21T07:10:10.042Z,11.30
2023-04-21T07:12:37.195Z,11.40
2023-04-21T07:15:04.675Z,11.60
2023-04-21T07:17:31.640Z,11.70
2023-04-21T07:19:58.709Z,11.90
2023-04-21T07:22:25.741Z,12.10
2023-04-21T07:24:52.598Z,12.20
2023-04-21T07:27:19.651Z,12.10
2023-04-21T07:29:47.602Z,12.00
2023-04-21T07:32:15.549Z,12.00
2023-04-21T07:34:42.969Z,12.10
2023-04-21T07:37:10.508Z,12.10
2023-04-21T07:39:37.628Z,12.10
2023-04-21T07:42:08.349Z,12.10
2023-04-21T07:44:35.510Z,12.20
2023-04-21T07:47:02.589Z,12.30
2023-04-21T07:49:29.480Z,12.30
2023-04-21T07:51:56.361Z,12.40
2023-04-21T07:54:23.302Z,12.40
2023-04-21T07:56:50.218Z,12.40
2023-04-21T07:59:17.265Z,12.60
2023-04-21T08:01:44.312Z,12.60
2023-04-21T08:04:11.353Z,12.60
2023-04-21T08:06:38.777Z,12.70
2023-04-21T08:09:05.775Z,12.90
2023-04-21T08:11:32.780Z,12.80
2023-04-21T08:13:59.800Z,12.80
2023-04-21T08:16:26.725Z,12.90
2023-04-21T08:18:53.668Z,12.90
2023-04-21T08:21:20.752Z,12.90
2023-04-21T08:23:47.734Z,13.00
2023-04-21T08:26:14.740Z,13.00
2023-04-21T08:28:41.657Z,13.00
2023-04-21T08:31:11.959Z,13.10
2023-04-21T08:33:46.680Z,13.10
2023-04-21T08:36:28.394Z,13.20
2023-04-21T08:38:56.673Z,13.30
2023-04-21T08:41:24.413Z,13.30
2023-04-21T08:43:51.393Z,13.30
2023-04-21T08:46:19.434Z,13.30
2023-04-21T08:48:48.679Z,13.40
2023-04-21T08:51:22.997Z,13.50
2023-04-21T08:53:50.105Z,13.50
2023-04-21T08:56:17.080Z,13.50
2023-04-21T08:58:44.091Z,13.60
2023-04-21T09:01:12.301Z,13.80
2023-04-21T09:03:39.615Z,13.90
2023-04-21T09:06:09.968Z,13.80
2023-04-21T09:08:44.086Z,13.70
2023-04-21T09:11:15.066Z,13.80
2023-04-21T09:13:43.511Z,13.90
2023-04-21T09:16:20.399Z,14.00
2023-04-21T09:18:47.612Z,14.10
2023-04-21T09:21:20.109Z,14.20
2023-04-21T09:23:57.171Z,14.40
2023-04-21T09:26:25.078Z,14.60
2023-04-21T09:28:53.961Z,14.50
2023-04-21T09:31:30.353Z,14.50
2023-04-21T09:34:00.454Z,14.50
2023-04-21T09:36:32.193Z,14.40
2023-04-21T09:41:32.627Z,14.40
2023-04-21T09:44:04.604Z,14.60
2023-04-21T09:46:34.394Z,14.70
2023-04-21T09:49:02.223Z,14.80
2023-04-21T09:51:49.295Z,14.70
2023-04-21T09:54:29.791Z,14.70
2023-04-21T09:57:02.265Z,14.60
2023-04-21T09:59:44.208Z,14.60
2023-04-21T10:02:13.254Z,14.50
2023-04-21T10:04:43.363Z,14.50
2023-04-21T10:07:11.320Z,14.60
2023-04-21T10:09:45.801Z,14.40
2023-04-21T10:12:14.072Z,14.30
2023-04-21T10:14:41.251Z,14.30
2023-04-21T10:17:11.857Z,14.40
2023-04-21T10:19:49.291Z,14.60
2023-04-21T10:22:28.808Z,14.80
2023-04-21T10:25:00.051Z,15.10
2023-04-21T10:27:56.749Z,15.30
2023-04-21T10:30:29.154Z,15.50
2023-04-21T10:33:04.997Z,15.50
2023-04-21T10:36:01.579Z,15.70
2023-04-21T10:38:43.203Z,16.00
2023-04-21T10:41:33.438Z,16.10
2023-04-21T10:44:01.739Z,16.20
2023-04-21T10:46:36.732Z,16.30
2023-04-21T10:49:12.139Z,16.20
2023-04-21T10:52:04.125Z,16.10
2023-04-21T10:55:17.591Z,15.80
2023-04-21T10:57:45.629Z,15.80
2023-04-21T11:00:17.720Z,15.70
2023-04-21T11:02:52.817Z,15.90
2023-04-21T11:05:20.270Z,15.80
2023-04-21T11:07:47.137Z,15.90
2023-04-21T11:10:15.063Z,15.90
2023-04-21T11:12:42.053Z,16.00
2023-04-21T11:15:13.299Z,16.00
2023-04-21T11:17:43.458Z,16.00
2023-04-21T11:20:10.664Z,16.00
2023-04-21T11:22:41.127Z,16.00
2023-04-21T11:25:18.484Z,16.00
2023-04-21T11:27:54.945Z,15.90
2023-04-21T11:30:31.364Z,16.00
2023-04-21T11:32:58.732Z,16.10
2023-04-21T11:35:26.072Z,16.10
2023-04-21T11:37:53.171Z,16.10
2023-04-21T11:40:20.456Z,16.30
2023-04-21T11:42:47.591Z,16.70
2023-04-21T11:45:22.505Z,16.70
2023-04-21T11:47:50.064Z,16.80
2023-04-21T11:50:32.721Z,17.10
2023-04-21T11:53:02.180Z,17.40
2023-04-21T11:55:29.421Z,17.40
2023-04-21T11:57:57.863Z,17.50
2023-04-21T12:00:29.646Z,17.80
2023-04-21T12:02:57.318Z,17.90
2023-04-21T12:05:24.582Z,18.20
2023-04-21T12:07:52.400Z,18.60
2023-04-21T12:10:21.104Z,18.70
2023-04-21T12:12:48.847Z,18.70
2023-04-21T12:15:23.486Z,18.70
2023-04-21T12:17:52.509Z,18.80
2023-04-21T12:20:23.969Z,19.10
2023-04-21T12:22:51.197Z,19.10
2023-04-21T12:25:18.567Z,19.20
2023-04-21T12:27:53.215Z,19.30
2023-04-21T12:30:21.967Z,19.50
2023-04-21T12:32:49.357Z,19.30
2023-04-21T12:35:16.531Z,19.30
2023-04-21T12:37:44.448Z,19.40
2023-04-21T12:40:11.756Z,19.50
2023-04-21T12:42:38.849Z,19.60
2023-04-21T12:45:06.638Z,19.60
2023-04-21T12:47:34.358Z,19.60
2023-04-21T12:50:01.367Z,19.40
2023-04-21T12:52:28.546Z,19.40
2023-04-21T12:54:55.533Z,19.40
2023-04-21T12:57:22.450Z,19.60
2023-04-21T12:59:49.864Z,19.60
2023-04-21T13:02:17.325Z,19.60
2023-04-21T13:04:44.523Z,19.50
2023-04-21T13:07:12.443Z,19.30
2023-04-21T13:09:39.416Z,19.20
2023-04-21T13:12:06.623Z,18.90
2023-04-21T13:14:33.597Z,19.00
2023-04-21T13:17:00.655Z,19.10
2023-04-21T13:19:28.686Z,19.20
2023-04-21T13:21:57.027Z,19.20
2023-04-21T13:24:25.948Z,19.30
2023-04-21T13:26:53.042Z,19.30
2023-04-21T13:29:20.051Z,19.10
2023-04-21T13:31:47.275Z,19.10
2023-04-21T13:34:14.718Z,19.10
2023-04-21T13:36:42.020Z,19.10
2023-04-21T13:39:12.182Z,19.10
2023-04-21T13:41:39.331Z,19.20
2023-04-21T13:44:06.627Z,19.10
2023-04-21T13:46:33.708Z,18.60
2023-04-21T13:49:00.999Z,18.70
2023-04-21T13:51:28.027Z,18.90
2023-04-21T13:53:55.120Z,19.00
2023-04-21T13:56:22.352Z,18.80
2023-04-21T13:58:49.923Z,18.60
2023-04-21T14:01:18.595Z,18.40
2023-04-21T14:03:47.898Z,18.60
2023-04-21T14:06:15.169Z,18.80
2023-04-21T14:08:42.202Z,19.00
2023-04-21T14:11:09.325Z,19.00
2023-04-21T14:13:44.592Z,18.80
2023-04-21T14:16:15.166Z,18.70
2023-04-21T14:18:45.219Z,18.50
2023-04-21T14:21:12.281Z,18.40
2023-04-21T14:23:39.625Z,18.20
2023-04-21T14:26:06.727Z,18.10
2023-04-21T14:28:33.735Z,17.90
2023-04-21T14:31:03.149Z,17.80
2023-04-21T14:33:30.765Z,17.70
2023-04-21T14:35:57.849Z,17.60
2023-04-21T14:38:25.729Z,17.60
2023-04-21T14:40:55.765Z,17.60
2023-04-21T14:43:23.010Z,17.60
2023-04-21T14:45:50.059Z,17.60
2023-04-21T14:48:17.354Z,17.70
2023-04-21T14:50:44.448Z,17.70
2023-04-21T14:53:11.400Z,17.70
2023-04-21T14:55:38.249Z,17.80
2023-04-21T14:58:05.164Z,17.80
2023-04-21T15:00:32.777Z,17.80
2023-04-21T15:03:00.134Z,17.80
2023-04-21T15:05:27.363Z,17.80
2023-04-21T15:07:54.379Z,17.80
2023-04-21T15:10:21.432Z,17.80
2023-04-21T15:12:48.598Z,17.80
2023-04-21T15:15:15.601Z,17.80
2023-04-21T15:17:43.088Z,17.90
2023-04-21T15:20:11.274Z,17.90
2023-04-21T15:22:38.283Z,18.00
2023-04-21T15:25:06.947Z,18.00
2023-04-21T15:27:34.155Z,18.00
2023-04-21T15:30:01.216Z,18.10
2023-04-21T15:32:31.991Z,18.10
2023-04-21T15:34:58.877Z,18.20
2023-04-21T15:37:26.869Z,18.20
2023-04-21T15:39:53.869Z,18.20
2023-04-21T15:42:21.287Z,18.30
2023-04-21T15:44:48.415Z,18.30
2023-04-21T15:47:17.355Z,18.30
2023-04-21T15:49:44.349Z,18.30
2023-04-21T15:52:12.175Z,18.30
2023-04-21T15:54:39.555Z,18.30
2023-04-21T15:57:07.856Z,18.30
2023-04-21T15:59:36.003Z,18.30
2023-04-21T16:02:04.092Z,18.40
2023-04-21T16:04:31.496Z,18.40
2023-04-21T16:06:58.745Z,18.40
2023-04-21T16:09:26.609Z,18.40
2023-04-21T16:11:53.664Z,18.40
2023-04-21T16:14:20.720Z,18.40
2023-04-21T16:16:47.758Z,18.40
2023-04-21T16:19:14.914Z,18.40
2023-04-21T16:21:42.747Z,18.50
2023-04-21T16:24:10.010Z,18.40
2023-04-21T16:26:37.254Z,18.40
2023-04-21T16:29:04.351Z,18.40
2023-04-21T16:31:32.022Z,18.40
2023-04-21T16:34:00.423Z,18.40
2023-04-21T16:36:29.037Z,18.40
2023-04-21T16:38:56.306Z,18.40
2023-04-21T16:41:23.667Z,18.40
2023-04-21T16:43:51.018Z,18.40
2023-04-21T16:46:18.399Z,18.40
2023-04-21T16:48:45.709Z,18.40
2023-04-21T16:51:12.831Z,18.40
2023-04-21T16:53:40.445Z,18.30
2023-04-21T16:56:07.728Z,18.20
2023-04-21T16:58:34.708Z,18.20
2023-04-21T17:01:01.832Z,18.10
2023-04-21T17:03:29.480Z,18.00
2023-04-21T17:05:56.588Z,17.90
2023-04-21T17:08:23.589Z,17.90
2023-04-21T17:10:50.609Z,17.80
2023-04-21T17:13:17.512Z,17.70
2023-04-21T17:15:44.462Z,17.60
2023-04-21T17:18:11.566Z,17.50
2023-04-21T17:20:38.812Z,17.40
2023-04-21T17:23:06.011Z,17.30
2023-04-21T17:25:33.231Z,17.30
2023-04-21T17:28:00.394Z,17.10
2023-04-21T17:30:27.756Z,17.00
2023-04-21T17:33:04.068Z,16.90
2023-04-21T17:35:35.892Z,16.90
2023-04-21T17:38:03.006Z,16.80
2023-04-21T17:40:29.937Z,16.70
2023-04-21T17:42:56.924Z,16.70
2023-04-21T17:45:23.889Z,16.60
2023-04-21T17:47:50.906Z,16.50
2023-04-21T17:50:17.920Z,16.40
2023-04-21T17:52:44.981Z,16.20
2023-04-21T17:55:13.352Z,16.10
2023-04-21T17:57:40.787Z,16.00
2023-04-21T18:00:11.841Z,15.90
2023-04-21T18:02:40.419Z,15.70
2023-04-21T18:05:08.008Z,15.70
2023-04-21T18:07:35.053Z,15.60
2023-04-21T18:10:02.107Z,15.60
2023-04-21T18:12:29.066Z,15.50
2023-04-21T18:14:59.156Z,15.50
2023-04-21T18:17:26.461Z,15.50
2023-04-21T18:19:53.376Z,15.40
2023-04-21T18:22:20.726Z,15.30
2023-04-21T18:24:48.089Z,15.30
2023-04-21T18:27:15.805Z,15.10
2023-04-21T18:29:42.896Z,15.00
2023-04-21T18:32:10.469Z,14.90
2023-04-21T18:34:38.139Z,14.80
2023-04-21T18:37:05.662Z,14.70
2023-04-21T18:39:32.609Z,14.70
2023-04-21T18:42:01.060Z,14.80
2023-04-21T18:44:28.192Z,14.90
2023-04-21T18:46:55.284Z,15.00
2023-04-21T18:49:25.221Z,15.00
2023-04-21T18:51:52.441Z,15.00
2023-04-21T18:54:19.406Z,15.00
2023-04-21T18:56:46.735Z,14.90
2023-04-21T18:59:13.785Z,14.90
2023-04-21T19:01:42.426Z,14.90
2023-04-21T19:04:10.742Z,14.90
2023-04-21T19:06:38.116Z,15.00
2023-04-21T19:09:05.118Z,15.00
2023-04-21T19:11:33.581Z,15.10
2023-04-21T19:14:03.097Z,15.10
2023-04-21T19:16:31.001Z,15.10
2023-04-21T19:18:58.137Z,15.10
2023-04-21T19:21:25.430Z,15.20
2023-04-21T19:23:52.460Z,15.30
2023-04-21T19:26:21.902Z,15.30
2023-04-21T19:28:49.303Z,15.30
2023-04-21T19:31:19.327Z,15.20
2023-04-21T19:33:46.999Z,15.10
2023-04-21T19:36:14.133Z,15.00
2023-04-21T19:38:41.363Z,15.00
2023-04-21T19:41:08.334Z,14.90
2023-04-21T19:43:35.284Z,14.90
2023-04-21T19:46:02.500Z,14.90
2023-04-21T19:48:29.660Z,14.80
2023-04-21T19:50:56.681Z,14.80
2023-04-21T19:53:23.682Z,14.80
2023-04-21T19:55:52.492Z,14.80
2023-04-21T19:58:36.378Z,14.70
2023-04-21T20:01:07.199Z,14.70
2023-04-21T20:03:34.724Z,14.70
2023-04-21T20:06:02.588Z,14.70
2023-04-21T20:08:29.829Z,14.70
2023-04-21T20:10:56.835Z,14.60
2023-04-21T20:13:23.839Z,14.50
2023-04-21T20:15:50.944Z,14.40
2023-04-21T20:18:17.964Z,14.40
2023-04-21T20:20:45.113Z,14.30
2023-04-21T20:23:12.095Z,14.30
2023-04-21T20:25:39.352Z,14.40
2023-04-21T20:28:06.352Z,14.40
2023-04-21T20:30:33.530Z,14.30
2023-04-21T20:33:00.589Z,14.30
2023-04-21T20:35:27.581Z,14.30
2023-04-21T20:37:54.737Z,14.40
2023-04-21T20:40:21.903Z,14.50
2023-04-21T20:42:49.457Z,14.50
2023-04-21T20:45:17.445Z,14.50
2023-04-21T20:47:44.436Z,14.50
2023-04-21T20:50:12.784Z,14.00
2023-04-21T20:52:39.759Z,12.70
2023-04-21T20:55:07.213Z,11.90
2023-04-21T20:57:36.610Z,11.60
2023-04-21T21:00:07.208Z,11.50
2023-04-21T21:02:34.284Z,11.40
2023-04-21T21:05:04.497Z,11.30
2023-04-21T21:07:31.793Z,11.20
2023-04-21T21:09:58.973Z,11.10
2023-04-21T21:12:25.942Z,11.00
2023-04-21T21:14:55.499Z,10.90
2023-04-21T21:17:22.447Z,10.90
2023-04-21T21:19:49.621Z,10.90
2023-04-21T21:22:16.667Z,11.00
2023-04-21T21:24:43.666Z,11.10
2023-04-21T21:27:10.926Z,11.10
2023-04-21T21:29:38.274Z,11.10
2023-04-21T21:32:05.710Z,11.10
2023-04-21T21:34:33.148Z,11.10
2023-04-21T21:37:00.156Z,11.10
2023-04-21T21:39:27.401Z,11.10
2023-04-21T21:41:54.330Z,11.10
2023-04-21T21:44:22.043Z,11.10
2023-04-21T21:46:50.894Z,11.00
2023-04-21T21:49:18.212Z,11.00
2023-04-21T21:51:45.172Z,11.00
2023-04-21T21:54:12.127Z,11.00
2023-04-21T21:56:39.837Z,10.90
2023-04-21T21:59:07.135Z,10.90
2023-04-21T22:01:34.311Z,10.80
2023-04-21T22:04:05.162Z,10.80
2023-04-21T22:06:32.865Z,10.70
2023-04-21T22:08:59.888Z,10.70
2023-04-21T22:11:26.974Z,10.70
2023-04-21T22:13:53.873Z,10.60
2023-04-21T22:16:20.806Z,10.50
2023-04-21T22:18:48.505Z,10.50
2023-04-21T22:21:15.787Z,10.50
2023-04-21T22:23:42.728Z,10.50
2023-04-21T22:26:10.651Z,10.50
2023-04-21T22:28:37.571Z,10.50
2023-04-21T22:31:05.123Z,10.60
2023-04-21T22:33:32.213Z,10.60
2023-04-21T22:35:59.096Z,10.70
2023-04-21T22:38:26.084Z,10.70
2023-04-21T22:40:52.970Z,10.60
2023-04-21T22:43:19.862Z,10.60
2023-04-21T22:45:47.356Z,10.70
2023-04-21T22:48:14.299Z,10.70
2023-04-21T22:50:44.326Z,10.70
2023-04-21T22:53:13.333Z,10.70
2023-04-21T22:55:40.446Z,10.70
2023-04-21T22:58:07.401Z,10.70
2023-04-21T23:00:34.405Z,10.70
2023-04-21T23:03:01.652Z,10.70
2023-04-21T23:05:29.920Z,10.70
2023-04-21T23:07:56.858Z,10.70
2023-04-21T23:10:24.076Z,10.60
2023-04-21T23:12:51.045Z,10.60
2023-04-21T23:15:18.025Z,10.60
2023-04-21T23:17:45.432Z,10.60
2023-04-21T23:20:12.834Z,10.60
2023-04-21T23:22:39.779Z,10.50
2023-04-21T23:25:07.797Z,10.40
2023-04-21T23:27:34.930Z,10.50
2023-04-21T23:30:02.238Z,10.40
2023-04-21T23:32:29.451Z,10.40
2023-04-21T23:34:56.708Z,10.50
2023-04-21T23:37:23.564Z,10.40
2023-04-21T23:39:50.462Z,10.40
2023-04-21T23:42:17.734Z,10.30
2023-04-21T23:44:44.659Z,10.30
2023-04-21T23:47:11.660Z,10.30
2023-04-21T23:49:38.863Z,10.30
2023-04-21T23:52:06.443Z,10.30
2023-04-21T23:54:33.387Z,10.40
2023-04-21T23:57:01.154Z,10.30
2023-04-21T23:59:28.085Z,10.30
